SWA1209 KBWI-KMHT
Flight info
| Callsign | SWA1209 |
|---|---|
| Flight time | 1h 6m |
| Altitude | 39000 |
| Route | DUKPN1 BROSS Q419 RBV Q22 LLUND SMYTH ROZZE2 |
| Aircraft | B737/M-SADE2E3GIJ4RWZ/LB1D1 |
Departure
| Time | 2026-04-26 21:53 |
|---|---|
| Airport | Baltimore/Washington International Thurgood Marshall Airport (KBWI) |
Arrival
| Time | 2026-04-26 22:59 |
|---|---|
| Airport | Manchester-Boston Regional Airport (KMHT) |
| Time | Latitude | Longitude | Altitude | Speed | Heading |
|---|---|---|---|---|---|
| 2026-04-26 21:28 | 39.17789 | -76.67121 | 156 ft | 0 kts | 101° |
| 2026-04-26 21:42 | 39.17790 | -76.67129 | 156 ft | 2 kts | 101° |
| 2026-04-26 21:42 | 39.17793 | -76.67150 | 156 ft | 2 kts | 101° |
| 2026-04-26 21:43 | 39.17794 | -76.67170 | 156 ft | 2 kts | 70° |
| 2026-04-26 21:43 | 39.17786 | -76.67188 | 156 ft | 2 kts | 38° |
| 2026-04-26 21:43 | 39.17771 | -76.67197 | 156 ft | 2 kts | 346° |
| 2026-04-26 21:43 | 39.17765 | -76.67194 | 156 ft | 0 kts | 310° |
| 2026-04-26 21:47 | 39.17767 | -76.67197 | 156 ft | 1 kts | 310° |
| 2026-04-26 21:47 | 39.17779 | -76.67213 | 156 ft | 5 kts | 315° |
| 2026-04-26 21:48 | 39.17835 | -76.67269 | 154 ft | 15 kts | 324° |
| 2026-04-26 21:48 | 39.17936 | -76.67361 | 153 ft | 20 kts | 324° |
| 2026-04-26 21:48 | 39.17986 | -76.67465 | 156 ft | 12 kts | 272° |
| 2026-04-26 21:48 | 39.18031 | -76.67556 | 157 ft | 13 kts | 322° |
| 2026-04-26 21:49 | 39.18116 | -76.67638 | 159 ft | 17 kts | 323° |
| 2026-04-26 21:49 | 39.18222 | -76.67732 | 162 ft | 20 kts | 325° |
| 2026-04-26 21:49 | 39.18353 | -76.67855 | 161 ft | 26 kts | 324° |
| 2026-04-26 21:49 | 39.18493 | -76.67983 | 159 ft | 15 kts | 324° |
| 2026-04-26 21:50 | 39.18550 | -76.68037 | 158 ft | 13 kts | 321° |
| 2026-04-26 21:50 | 39.18570 | -76.68080 | 159 ft | 0 kts | 280° |
| 2026-04-26 21:52 | 39.18570 | -76.68092 | 159 ft | 6 kts | 267° |
| 2026-04-26 21:52 | 39.18526 | -76.68171 | 159 ft | 12 kts | 187° |
| 2026-04-26 21:52 | 39.18416 | -76.68080 | 160 ft | 36 kts | 143° |
| 2026-04-26 21:52 | 39.17992 | -76.67685 | 160 ft | 112 kts | 146° |
| 2026-04-26 21:53 | 39.17203 | -76.66950 | 307 ft | 157 kts | 142° |
| 2026-04-26 21:53 | 39.16266 | -76.66180 | 953 ft | 164 kts | 134° |
| 2026-04-26 21:53 | 39.15611 | -76.64917 | 1432 ft | 183 kts | 111° |
| 2026-04-26 21:53 | 39.15117 | -76.63362 | 2095 ft | 190 kts | 107° |
| 2026-04-26 21:54 | 39.14588 | -76.61710 | 2541 ft | 212 kts | 110° |
| 2026-04-26 21:54 | 39.13956 | -76.59891 | 2827 ft | 231 kts | 111° |
| 2026-04-26 21:54 | 39.13281 | -76.57980 | 3375 ft | 237 kts | 111° |
| 2026-04-26 21:54 | 39.12593 | -76.56034 | 4056 ft | 237 kts | 111° |
| 2026-04-26 21:55 | 39.11915 | -76.54116 | 4815 ft | 234 kts | 110° |
| 2026-04-26 21:55 | 39.11236 | -76.52191 | 5389 ft | 238 kts | 109° |
| 2026-04-26 21:55 | 39.10543 | -76.50222 | 5931 ft | 244 kts | 109° |
| 2026-04-26 21:55 | 39.09836 | -76.48217 | 6538 ft | 249 kts | 109° |
| 2026-04-26 21:56 | 39.09234 | -76.46055 | 6889 ft | 264 kts | 92° |
| 2026-04-26 21:56 | 39.09462 | -76.43747 | 7596 ft | 264 kts | 69° |
| 2026-04-26 21:56 | 39.10062 | -76.41484 | 8402 ft | 270 kts | 66° |
| 2026-04-26 21:56 | 39.10709 | -76.39181 | 9239 ft | 278 kts | 66° |
| 2026-04-26 21:57 | 39.11374 | -76.36807 | 10062 ft | 285 kts | 66° |
| 2026-04-26 21:57 | 39.12060 | -76.34334 | 10546 ft | 306 kts | 66° |
| 2026-04-26 21:57 | 39.12801 | -76.31632 | 10742 ft | 333 kts | 67° |
| 2026-04-26 21:57 | 39.13595 | -76.28702 | 11071 ft | 354 kts | 67° |
| 2026-04-26 21:58 | 39.14409 | -76.25666 | 11771 ft | 360 kts | 67° |
| 2026-04-26 21:58 | 39.15215 | -76.22591 | 12596 ft | 364 kts | 70° |
| 2026-04-26 21:58 | 39.15713 | -76.19398 | 13403 ft | 373 kts | 78° |
| 2026-04-26 21:58 | 39.16028 | -76.16057 | 13868 ft | 377 kts | 79° |
| 2026-04-26 21:59 | 39.16343 | -76.12690 | 14017 ft | 379 kts | 78° |
| 2026-04-26 21:59 | 39.16696 | -76.09333 | 14007 ft | 377 kts | 78° |
| 2026-04-26 21:59 | 39.17070 | -76.05988 | 14003 ft | 377 kts | 77° |
| 2026-04-26 21:59 | 39.17452 | -76.02648 | 14007 ft | 377 kts | 77° |
| 2026-04-26 22:00 | 39.17834 | -75.99311 | 14005 ft | 377 kts | 77° |
| 2026-04-26 22:00 | 39.18215 | -75.95963 | 14009 ft | 378 kts | 77° |
| 2026-04-26 22:00 | 39.18595 | -75.92604 | 14003 ft | 379 kts | 77° |
| 2026-04-26 22:00 | 39.19170 | -75.89317 | 13984 ft | 372 kts | 63° |
| 2026-04-26 22:01 | 39.20523 | -75.86535 | 14002 ft | 363 kts | 44° |
| 2026-04-26 22:01 | 39.22369 | -75.84347 | 14008 ft | 360 kts | 37° |
| 2026-04-26 22:01 | 39.24298 | -75.82270 | 13997 ft | 361 kts | 36° |
| 2026-04-26 22:01 | 39.26233 | -75.80205 | 14000 ft | 361 kts | 36° |
| 2026-04-26 22:02 | 39.28141 | -75.78158 | 14006 ft | 361 kts | 36° |
| 2026-04-26 22:02 | 39.29443 | -75.76750 | 13989 ft | 361 kts | 36° |
| 2026-04-26 22:02 | 39.31988 | -75.73979 | 13996 ft | 361 kts | 37° |
| 2026-04-26 22:02 | 39.33905 | -75.71877 | 13998 ft | 360 kts | 37° |
| 2026-04-26 22:03 | 39.35813 | -75.69781 | 13995 ft | 360 kts | 37° |
| 2026-04-26 22:03 | 39.37723 | -75.67678 | 14009 ft | 360 kts | 37° |
| 2026-04-26 22:03 | 39.39630 | -75.65579 | 14001 ft | 360 kts | 37° |
| 2026-04-26 22:03 | 39.41557 | -75.63458 | 14335 ft | 367 kts | 37° |
| 2026-04-26 22:04 | 39.43481 | -75.61337 | 15168 ft | 368 kts | 37° |
| 2026-04-26 22:04 | 39.45434 | -75.59187 | 16085 ft | 369 kts | 37° |
| 2026-04-26 22:04 | 39.47408 | -75.57020 | 16889 ft | 374 kts | 36° |
| 2026-04-26 22:04 | 39.49414 | -75.54819 | 17660 ft | 379 kts | 37° |
| 2026-04-26 22:05 | 39.51442 | -75.52590 | 18418 ft | 384 kts | 37° |
| 2026-04-26 22:05 | 39.53465 | -75.50362 | 19088 ft | 388 kts | 37° |
| 2026-04-26 22:05 | 39.55531 | -75.48084 | 19763 ft | 392 kts | 36° |
| 2026-04-26 22:05 | 39.57619 | -75.45781 | 20438 ft | 396 kts | 36° |
| 2026-04-26 22:06 | 39.59724 | -75.43458 | 21133 ft | 399 kts | 36° |
| 2026-04-26 22:06 | 39.61842 | -75.41118 | 21857 ft | 401 kts | 36° |
| 2026-04-26 22:06 | 39.63980 | -75.38758 | 22479 ft | 406 kts | 36° |
| 2026-04-26 22:06 | 39.66141 | -75.36371 | 23079 ft | 410 kts | 36° |
| 2026-04-26 22:07 | 39.68324 | -75.33958 | 23672 ft | 414 kts | 36° |
| 2026-04-26 22:07 | 39.70530 | -75.31515 | 24197 ft | 418 kts | 36° |
| 2026-04-26 22:07 | 39.72748 | -75.29056 | 24710 ft | 421 kts | 36° |
| 2026-04-26 22:07 | 39.74988 | -75.26572 | 25214 ft | 424 kts | 36° |
| 2026-04-26 22:08 | 39.77247 | -75.24065 | 25705 ft | 427 kts | 36° |
| 2026-04-26 22:08 | 39.79491 | -75.21499 | 26174 ft | 433 kts | 39° |
| 2026-04-26 22:08 | 39.81560 | -75.18608 | 26636 ft | 439 kts | 44° |
| 2026-04-26 22:08 | 39.83532 | -75.15618 | 27082 ft | 443 kts | 45° |
| 2026-04-26 22:09 | 39.85532 | -75.12535 | 27521 ft | 446 kts | 45° |
| 2026-04-26 22:09 | 39.87547 | -75.09451 | 27946 ft | 449 kts | 45° |
| 2026-04-26 22:09 | 39.89592 | -75.06355 | 28359 ft | 452 kts | 44° |
| 2026-04-26 22:09 | 39.91672 | -75.03235 | 28582 ft | 460 kts | 44° |
| 2026-04-26 22:10 | 39.93793 | -75.00063 | 29014 ft | 462 kts | 44° |
| 2026-04-26 22:10 | 39.95877 | -74.96939 | 29642 ft | 460 kts | 44° |
| 2026-04-26 22:10 | 39.97911 | -74.93690 | 29992 ft | 467 kts | 49° |
| 2026-04-26 22:10 | 39.99771 | -74.90174 | 30289 ft | 473 kts | 52° |
| 2026-04-26 22:11 | 40.01568 | -74.86564 | 30632 ft | 474 kts | 53° |
| 2026-04-26 22:11 | 40.03349 | -74.82935 | 31032 ft | 474 kts | 53° |
| 2026-04-26 22:11 | 40.05119 | -74.79353 | 31433 ft | 474 kts | 53° |
| 2026-04-26 22:11 | 40.06922 | -74.75749 | 31799 ft | 475 kts | 52° |
| 2026-04-26 22:12 | 40.08745 | -74.72139 | 32157 ft | 475 kts | 52° |
| 2026-04-26 22:12 | 40.10578 | -74.68526 | 32531 ft | 476 kts | 53° |
| 2026-04-26 22:12 | 40.12406 | -74.64924 | 33042 ft | 473 kts | 53° |
| 2026-04-26 22:12 | 40.14200 | -74.61384 | 33512 ft | 471 kts | 53° |
| 2026-04-26 22:13 | 40.16017 | -74.57795 | 33837 ft | 473 kts | 53° |
| 2026-04-26 22:13 | 40.17835 | -74.54197 | 34140 ft | 475 kts | 53° |
| 2026-04-26 22:13 | 40.19721 | -74.50647 | 34454 ft | 473 kts | 48° |
| 2026-04-26 22:13 | 40.21933 | -74.47482 | 34756 ft | 470 kts | 38° |
| 2026-04-26 22:14 | 40.24441 | -74.44751 | 35068 ft | 468 kts | 35° |
| 2026-04-26 22:14 | 40.26998 | -74.42092 | 35336 ft | 470 kts | 34° |
| 2026-04-26 22:14 | 40.29560 | -74.39436 | 35722 ft | 468 kts | 34° |
| 2026-04-26 22:14 | 40.32087 | -74.36789 | 36306 ft | 462 kts | 34° |
| 2026-04-26 22:15 | 40.34562 | -74.34172 | 36508 ft | 466 kts | 35° |
| 2026-04-26 22:15 | 40.37104 | -74.31467 | 36542 ft | 473 kts | 35° |
| 2026-04-26 22:15 | 40.39666 | -74.28726 | 36713 ft | 476 kts | 35° |
| 2026-04-26 22:15 | 40.42228 | -74.25972 | 37042 ft | 475 kts | 35° |
| 2026-04-26 22:16 | 40.44787 | -74.23219 | 37384 ft | 474 kts | 35° |
| 2026-04-26 22:16 | 40.47343 | -74.20467 | 37689 ft | 475 kts | 34° |
| 2026-04-26 22:16 | 40.49894 | -74.17720 | 38146 ft | 471 kts | 34° |
| 2026-04-26 22:16 | 40.52398 | -74.15023 | 38477 ft | 471 kts | 34° |
| 2026-04-26 22:17 | 40.54942 | -74.12282 | 38636 ft | 474 kts | 34° |
| 2026-04-26 22:17 | 40.57502 | -74.09524 | 38834 ft | 476 kts | 34° |
| 2026-04-26 22:17 | 40.60066 | -74.06760 | 39066 ft | 475 kts | 34° |
| 2026-04-26 22:17 | 40.62629 | -74.03994 | 39205 ft | 477 kts | 34° |
| 2026-04-26 22:18 | 40.67781 | -73.98425 | 39216 ft | 479 kts | 34° |
| 2026-04-26 22:18 | 40.72897 | -73.92877 | 39184 ft | 473 kts | 34° |
| 2026-04-26 22:19 | 40.77926 | -73.87417 | 39192 ft | 471 kts | 34° |
| 2026-04-26 22:19 | 40.82987 | -73.81958 | 39183 ft | 468 kts | 30° |
| 2026-04-26 22:20 | 40.85783 | -73.79885 | 39193 ft | 456 kts | 15° |
| 2026-04-26 22:20 | 40.87809 | -73.79020 | 39197 ft | 450 kts | 8° |
| 2026-04-26 22:20 | 40.91860 | -73.78451 | 39186 ft | 438 kts | 352° |
| 2026-04-26 22:20 | 40.94894 | -73.78664 | 39195 ft | 437 kts | 352° |
| 2026-04-26 22:21 | 41.00969 | -73.79125 | 39181 ft | 438 kts | 352° |
| 2026-04-26 22:21 | 41.07064 | -73.79546 | 39191 ft | 439 kts | 352° |
| 2026-04-26 22:22 | 41.13173 | -73.79932 | 39184 ft | 439 kts | 353° |
| 2026-04-26 22:22 | 41.19286 | -73.80305 | 39188 ft | 440 kts | 353° |
| 2026-04-26 22:23 | 41.25381 | -73.80676 | 39173 ft | 440 kts | 353° |
| 2026-04-26 22:23 | 41.31509 | -73.81053 | 39164 ft | 440 kts | 353° |
| 2026-04-26 22:24 | 41.37601 | -73.81426 | 39158 ft | 439 kts | 353° |
| 2026-04-26 22:24 | 41.43719 | -73.81803 | 39159 ft | 439 kts | 353° |
| 2026-04-26 22:25 | 41.48794 | -73.82116 | 39145 ft | 439 kts | 353° |
| 2026-04-26 22:25 | 41.54907 | -73.82495 | 39136 ft | 439 kts | 353° |
| 2026-04-26 22:26 | 41.61015 | -73.82873 | 39138 ft | 439 kts | 353° |
| 2026-04-26 22:26 | 41.67089 | -73.83249 | 39142 ft | 439 kts | 353° |
| 2026-04-26 22:27 | 41.73199 | -73.83629 | 39140 ft | 439 kts | 353° |
| 2026-04-26 22:27 | 41.79298 | -73.84009 | 39137 ft | 438 kts | 353° |
| 2026-04-26 22:28 | 41.85375 | -73.84389 | 39139 ft | 438 kts | 353° |
| 2026-04-26 22:28 | 41.91483 | -73.84771 | 39148 ft | 439 kts | 354° |
| 2026-04-26 22:29 | 41.97561 | -73.85152 | 39134 ft | 439 kts | 354° |
| 2026-04-26 22:29 | 42.03671 | -73.85535 | 39143 ft | 439 kts | 354° |
| 2026-04-26 22:30 | 42.09784 | -73.85920 | 39143 ft | 439 kts | 354° |
| 2026-04-26 22:30 | 42.15893 | -73.86305 | 39148 ft | 439 kts | 354° |
| 2026-04-26 22:31 | 42.21970 | -73.86689 | 39146 ft | 439 kts | 354° |
| 2026-04-26 22:31 | 42.28087 | -73.87076 | 39149 ft | 439 kts | 354° |
| 2026-04-26 22:32 | 42.34178 | -73.87462 | 39150 ft | 439 kts | 354° |
| 2026-04-26 22:32 | 42.40287 | -73.87850 | 39153 ft | 439 kts | 355° |
| 2026-04-26 22:33 | 42.49264 | -73.85843 | 38328 ft | 456 kts | 30° |
| 2026-04-26 22:33 | 42.51704 | -73.83095 | 37648 ft | 459 kts | 44° |
| 2026-04-26 22:34 | 42.53547 | -73.79570 | 36980 ft | 465 kts | 59° |
| 2026-04-26 22:34 | 42.54923 | -73.75534 | 36328 ft | 465 kts | 62° |
| 2026-04-26 22:34 | 42.56178 | -73.71550 | 35609 ft | 465 kts | 63° |
| 2026-04-26 22:34 | 42.57429 | -73.67498 | 34855 ft | 466 kts | 63° |
| 2026-04-26 22:35 | 42.58687 | -73.63446 | 34078 ft | 466 kts | 63° |
| 2026-04-26 22:35 | 42.59961 | -73.59399 | 33134 ft | 467 kts | 62° |
| 2026-04-26 22:35 | 42.61249 | -73.55354 | 32253 ft | 466 kts | 62° |
| 2026-04-26 22:35 | 42.62543 | -73.51320 | 31370 ft | 466 kts | 61° |
| 2026-04-26 22:36 | 42.63841 | -73.47285 | 30465 ft | 466 kts | 62° |
| 2026-04-26 22:36 | 42.65149 | -73.43219 | 29374 ft | 467 kts | 62° |
| 2026-04-26 22:36 | 42.66434 | -73.39219 | 28287 ft | 467 kts | 62° |
| 2026-04-26 22:36 | 42.67732 | -73.35170 | 27334 ft | 465 kts | 62° |
| 2026-04-26 22:37 | 42.69007 | -73.31173 | 26560 ft | 458 kts | 62° |
| 2026-04-26 22:37 | 42.70267 | -73.27220 | 25799 ft | 453 kts | 63° |
| 2026-04-26 22:37 | 42.71515 | -73.23303 | 25030 ft | 448 kts | 63° |
| 2026-04-26 22:37 | 42.72745 | -73.19437 | 24268 ft | 443 kts | 63° |
| 2026-04-26 22:38 | 42.73964 | -73.15605 | 23684 ft | 436 kts | 63° |
| 2026-04-26 22:38 | 42.75141 | -73.11890 | 23422 ft | 420 kts | 63° |
| 2026-04-26 22:38 | 42.76275 | -73.08305 | 23226 ft | 404 kts | 63° |
| 2026-04-26 22:38 | 42.77297 | -73.04822 | 23000 ft | 392 kts | 70° |
| 2026-04-26 22:39 | 42.77671 | -73.01123 | 22467 ft | 393 kts | 83° |
| 2026-04-26 22:39 | 42.77822 | -72.97468 | 21945 ft | 389 kts | 83° |
| 2026-04-26 22:39 | 42.77980 | -72.93797 | 21439 ft | 385 kts | 83° |
| 2026-04-26 22:39 | 42.78152 | -72.90174 | 20932 ft | 382 kts | 83° |
| 2026-04-26 22:40 | 42.78338 | -72.86579 | 20418 ft | 379 kts | 83° |
| 2026-04-26 22:40 | 42.78528 | -72.83053 | 19918 ft | 376 kts | 83° |
| 2026-04-26 22:40 | 42.78720 | -72.79515 | 19423 ft | 373 kts | 83° |
| 2026-04-26 22:40 | 42.78910 | -72.76002 | 18924 ft | 371 kts | 83° |
| 2026-04-26 22:41 | 42.79098 | -72.72511 | 18383 ft | 369 kts | 83° |
| 2026-04-26 22:41 | 42.79289 | -72.69027 | 17823 ft | 367 kts | 83° |
| 2026-04-26 22:41 | 42.79479 | -72.65577 | 17316 ft | 363 kts | 83° |
| 2026-04-26 22:41 | 42.79666 | -72.62146 | 16646 ft | 364 kts | 83° |
| 2026-04-26 22:42 | 42.79851 | -72.58753 | 16137 ft | 361 kts | 83° |
| 2026-04-26 22:42 | 42.80035 | -72.55357 | 15646 ft | 357 kts | 84° |
| 2026-04-26 22:42 | 42.80215 | -72.51999 | 15163 ft | 354 kts | 84° |
| 2026-04-26 22:42 | 42.80392 | -72.48675 | 14667 ft | 350 kts | 84° |
| 2026-04-26 22:43 | 42.80565 | -72.45341 | 13944 ft | 353 kts | 84° |
| 2026-04-26 22:43 | 42.80731 | -72.42059 | 13354 ft | 341 kts | 84° |
| 2026-04-26 22:43 | 42.80890 | -72.38897 | 12874 ft | 331 kts | 84° |
| 2026-04-26 22:43 | 42.81044 | -72.35824 | 12435 ft | 327 kts | 84° |
| 2026-04-26 22:44 | 42.81199 | -72.32742 | 11980 ft | 324 kts | 84° |
| 2026-04-26 22:44 | 42.81352 | -72.29697 | 11558 ft | 320 kts | 84° |
| 2026-04-26 22:44 | 42.81503 | -72.26675 | 11119 ft | 318 kts | 84° |
| 2026-04-26 22:44 | 42.81652 | -72.23685 | 10724 ft | 314 kts | 84° |
| 2026-04-26 22:45 | 42.81797 | -72.20743 | 10495 ft | 306 kts | 84° |
| 2026-04-26 22:45 | 42.81935 | -72.17907 | 10341 ft | 295 kts | 84° |
| 2026-04-26 22:45 | 42.82068 | -72.15164 | 10211 ft | 284 kts | 84° |
| 2026-04-26 22:45 | 42.82206 | -72.12555 | 10106 ft | 274 kts | 84° |
| 2026-04-26 22:46 | 42.82346 | -72.09977 | 9973 ft | 265 kts | 84° |
| 2026-04-26 22:46 | 42.82483 | -72.07479 | 9688 ft | 263 kts | 84° |
| 2026-04-26 22:46 | 42.82616 | -72.05025 | 9389 ft | 261 kts | 84° |
| 2026-04-26 22:46 | 42.82747 | -72.02565 | 9102 ft | 259 kts | 83° |
| 2026-04-26 22:47 | 42.82877 | -72.00117 | 8805 ft | 258 kts | 83° |
| 2026-04-26 22:47 | 42.82994 | -71.97681 | 8519 ft | 256 kts | 84° |
| 2026-04-26 22:47 | 42.83088 | -71.95289 | 8237 ft | 255 kts | 84° |
| 2026-04-26 22:47 | 42.83295 | -71.92909 | 7931 ft | 251 kts | 69° |
| 2026-04-26 22:48 | 42.84142 | -71.90866 | 7685 ft | 246 kts | 53° |
| 2026-04-26 22:48 | 42.85136 | -71.88974 | 7401 ft | 245 kts | 52° |
| 2026-04-26 22:48 | 42.86132 | -71.87092 | 7102 ft | 244 kts | 52° |
| 2026-04-26 22:48 | 42.87121 | -71.85218 | 6834 ft | 243 kts | 52° |
| 2026-04-26 22:49 | 42.88106 | -71.83345 | 6551 ft | 243 kts | 52° |
| 2026-04-26 22:49 | 42.89088 | -71.81471 | 6257 ft | 243 kts | 52° |
| 2026-04-26 22:49 | 42.90067 | -71.79598 | 5972 ft | 242 kts | 52° |
| 2026-04-26 22:49 | 42.91042 | -71.77730 | 5680 ft | 241 kts | 52° |
| 2026-04-26 22:50 | 42.92011 | -71.75872 | 5453 ft | 238 kts | 53° |
| 2026-04-26 22:50 | 42.92942 | -71.74082 | 5352 ft | 230 kts | 52° |
| 2026-04-26 22:50 | 42.93855 | -71.72329 | 5238 ft | 223 kts | 52° |
| 2026-04-26 22:50 | 42.94743 | -71.70619 | 5131 ft | 216 kts | 53° |
| 2026-04-26 22:51 | 42.95588 | -71.68991 | 5069 ft | 203 kts | 52° |
| 2026-04-26 22:51 | 42.96621 | -71.67809 | 4905 ft | 192 kts | 18° |
| 2026-04-26 22:51 | 42.97893 | -71.67442 | 4799 ft | 184 kts | 9° |
| 2026-04-26 22:51 | 42.99140 | -71.67206 | 4655 ft | 183 kts | 8° |
| 2026-04-26 22:52 | 43.00400 | -71.66978 | 4518 ft | 181 kts | 8° |
| 2026-04-26 22:52 | 43.01627 | -71.66758 | 4381 ft | 175 kts | 8° |
| 2026-04-26 22:52 | 43.02824 | -71.66542 | 4245 ft | 173 kts | 9° |
| 2026-04-26 22:52 | 43.04021 | -71.66326 | 4114 ft | 175 kts | 8° |
| 2026-04-26 22:53 | 43.05237 | -71.66098 | 3972 ft | 178 kts | 12° |
| 2026-04-26 22:53 | 43.06274 | -71.65271 | 3808 ft | 177 kts | 56° |
| 2026-04-26 22:53 | 43.06703 | -71.63715 | 3716 ft | 176 kts | 75° |
| 2026-04-26 22:53 | 43.07023 | -71.62085 | 3570 ft | 177 kts | 75° |
| 2026-04-26 22:54 | 43.07341 | -71.60459 | 3422 ft | 176 kts | 75° |
| 2026-04-26 22:54 | 43.07656 | -71.58839 | 3274 ft | 175 kts | 75° |
| 2026-04-26 22:54 | 43.07946 | -71.57212 | 3133 ft | 177 kts | 84° |
| 2026-04-26 22:54 | 43.07627 | -71.55673 | 2989 ft | 171 kts | 124° |
| 2026-04-26 22:55 | 43.06953 | -71.54319 | 2897 ft | 174 kts | 122° |
| 2026-04-26 22:55 | 43.06285 | -71.52933 | 2772 ft | 174 kts | 122° |
| 2026-04-26 22:55 | 43.05627 | -71.51570 | 2606 ft | 170 kts | 122° |
| 2026-04-26 22:55 | 43.04884 | -71.50329 | 2407 ft | 170 kts | 147° |
| 2026-04-26 22:56 | 43.03806 | -71.49706 | 2247 ft | 166 kts | 155° |
| 2026-04-26 22:56 | 43.02773 | -71.49077 | 2031 ft | 158 kts | 155° |
| 2026-04-26 22:56 | 43.01808 | -71.48488 | 1885 ft | 144 kts | 155° |
| 2026-04-26 22:56 | 43.00926 | -71.47960 | 1713 ft | 135 kts | 155° |
| 2026-04-26 22:57 | 43.00094 | -71.47467 | 1549 ft | 129 kts | 155° |
| 2026-04-26 22:57 | 42.99277 | -71.46982 | 1360 ft | 129 kts | 156° |
| 2026-04-26 22:57 | 42.98441 | -71.46486 | 1187 ft | 131 kts | 155° |
| 2026-04-26 22:57 | 42.97614 | -71.45996 | 997 ft | 128 kts | 156° |
| 2026-04-26 22:58 | 42.96776 | -71.45499 | 858 ft | 135 kts | 156° |
| 2026-04-26 22:58 | 42.95886 | -71.44970 | 657 ft | 138 kts | 156° |
| 2026-04-26 22:58 | 42.95005 | -71.44447 | 486 ft | 136 kts | 157° |
| 2026-04-26 22:58 | 42.94120 | -71.43925 | 260 ft | 139 kts | 157° |
| 2026-04-26 22:59 | 42.93332 | -71.43456 | 231 ft | 100 kts | 154° |
| 2026-04-26 22:59 | 42.93014 | -71.43288 | 234 ft | 13 kts | 189° |
| 2026-04-26 22:59 | 42.92983 | -71.43303 | 234 ft | 0 kts | 219° |
| 2026-04-26 22:59 | 42.92982 | -71.43306 | 239 ft | 1 kts | 227° |
| 2026-04-26 23:00 | 42.92976 | -71.43322 | 238 ft | 3 kts | 245° |
| 2026-04-26 23:00 | 42.92962 | -71.43365 | 234 ft | 7 kts | 244° |
| 2026-04-26 23:00 | 42.92935 | -71.43440 | 234 ft | 11 kts | 244° |
| 2026-04-26 23:00 | 42.92923 | -71.43475 | 234 ft | 1 kts | 246° |
| 2026-04-26 23:01 | 42.92911 | -71.43512 | 235 ft | 8 kts | 245° |
| 2026-04-26 23:01 | 42.92863 | -71.43567 | 233 ft | 11 kts | 184° |
| 2026-04-26 23:01 | 42.92783 | -71.43540 | 231 ft | 13 kts | 159° |
| 2026-04-26 23:01 | 42.92702 | -71.43581 | 231 ft | 15 kts | 236° |
| 2026-04-26 23:02 | 42.92700 | -71.43603 | 232 ft | 2 kts | 305° |
| 2026-04-26 23:02 | 42.92717 | -71.43626 | 231 ft | 0 kts | 313° |
| 2026-04-26 23:02 | 42.92729 | -71.43642 | 231 ft | 5 kts | 313° |
| 2026-04-26 23:02 | 42.92735 | -71.43652 | 231 ft | 1 kts | 313° |
| 2026-04-26 23:03 | 42.92743 | -71.43663 | 231 ft | 0 kts | 313° |